sensor_id;sensor_type;location;lat;lon;timestamp;temperature;humidity
52543;DHT22;38449;52.696;6.186;2022-10-16T00:01:29;13.00;99.90
52543;DHT22;38449;52.696;6.186;2022-10-16T00:03:57;13.10;99.90
52543;DHT22;38449;52.696;6.186;2022-10-16T00:06:24;13.10;99.90
52543;DHT22;38449;52.696;6.186;2022-10-16T00:08:49;13.00;99.90
52543;DHT22;38449;52.696;6.186;2022-10-16T00:11:21;13.00;99.90
52543;DHT22;38449;52.696;6.186;2022-10-16T00:13:48;13.00;99.90
52543;DHT22;38449;52.696;6.186;2022-10-16T00:16:14;13.00;99.90
52543;DHT22;38449;52.696;6.186;2022-10-16T00:18:41;13.00;99.90
52543;DHT22;38449;52.696;6.186;2022-10-16T00:21:17;13.00;99.90
52543;DHT22;38449;52.696;6.186;2022-10-16T00:23:43;13.00;99.90
52543;DHT22;38449;52.696;6.186;2022-10-16T00:26:15;13.00;99.90
52543;DHT22;38449;52.696;6.186;2022-10-16T00:28:41;13.00;99.90
52543;DHT22;38449;52.696;6.186;2022-10-16T00:31:09;13.10;99.90
52543;DHT22;38449;52.696;6.186;2022-10-16T00:33:37;13.10;99.90
52543;DHT22;38449;52.696;6.186;2022-10-16T00:36:04;13.10;99.90
52543;DHT22;38449;52.696;6.186;2022-10-16T00:38:30;13.10;99.90
52543;DHT22;38449;52.696;6.186;2022-10-16T00:40:56;13.10;99.90
52543;DHT22;38449;52.696;6.186;2022-10-16T00:43:47;13.10;99.90
52543;DHT22;38449;52.696;6.186;2022-10-16T00:49:32;13.10;99.90
52543;DHT22;38449;52.696;6.186;2022-10-16T00:54:40;13.10;99.90
52543;DHT22;38449;52.696;6.186;2022-10-16T00:57:04;13.10;99.90
52543;DHT22;38449;52.696;6.186;2022-10-16T00:59:33;13.10;99.90
52543;DHT22;38449;52.696;6.186;2022-10-16T01:01:59;13.10;99.90
52543;DHT22;38449;52.696;6.186;2022-10-16T01:04:26;13.20;99.90
52543;DHT22;38449;52.696;6.186;2022-10-16T01:07:12;13.20;99.90
52543;DHT22;38449;52.696;6.186;2022-10-16T01:14:56;13.20;99.90
52543;DHT22;38449;52.696;6.186;2022-10-16T01:17:50;13.10;99.90
52543;DHT22;38449;52.696;6.186;2022-10-16T01:20:35;13.20;99.90
52543;DHT22;38449;52.696;6.186;2022-10-16T01:23:27;13.10;99.90
52543;DHT22;38449;52.696;6.186;2022-10-16T01:28:52;13.10;99.90
52543;DHT22;38449;52.696;6.186;2022-10-16T01:31:24;13.20;99.90
52543;DHT22;38449;52.696;6.186;2022-10-16T01:34:10;13.10;99.90
52543;DHT22;38449;52.696;6.186;2022-10-16T01:36:42;13.10;99.90
52543;DHT22;38449;52.696;6.186;2022-10-16T01:39:11;13.10;99.90
52543;DHT22;38449;52.696;6.186;2022-10-16T01:41:41;13.20;99.90
52543;DHT22;38449;52.696;6.186;2022-10-16T01:44:11;13.10;99.90
52543;DHT22;38449;52.696;6.186;2022-10-16T01:46:43;13.10;99.90
52543;DHT22;38449;52.696;6.186;2022-10-16T01:49:11;13.10;99.90
52543;DHT22;38449;52.696;6.186;2022-10-16T01:51:38;13.10;99.90
52543;DHT22;38449;52.696;6.186;2022-10-16T01:54:06;13.10;99.90
52543;DHT22;38449;52.696;6.186;2022-10-16T01:56:34;13.10;99.90
52543;DHT22;38449;52.696;6.186;2022-10-16T01:59:24;13.10;99.90
52543;DHT22;38449;52.696;6.186;2022-10-16T02:01:58;13.00;99.90
52543;DHT22;38449;52.696;6.186;2022-10-16T02:04:32;13.10;99.90
52543;DHT22;38449;52.696;6.186;2022-10-16T02:06:58;13.10;99.90
52543;DHT22;38449;52.696;6.186;2022-10-16T02:09:24;13.10;99.90
52543;DHT22;38449;52.696;6.186;2022-10-16T02:11:53;13.10;99.90
52543;DHT22;38449;52.696;6.186;2022-10-16T02:14:20;13.10;99.90
52543;DHT22;38449;52.696;6.186;2022-10-16T02:16:47;13.10;99.90
52543;DHT22;38449;52.696;6.186;2022-10-16T02:19:13;13.10;99.90
52543;DHT22;38449;52.696;6.186;2022-10-16T02:29:27;13.10;99.90
52543;DHT22;38449;52.696;6.186;2022-10-16T02:32:04;13.10;99.90
52543;DHT22;38449;52.696;6.186;2022-10-16T02:34:32;13.10;99.90
52543;DHT22;38449;52.696;6.186;2022-10-16T02:37:00;13.10;99.90
52543;DHT22;38449;52.696;6.186;2022-10-16T02:39:28;13.10;99.90
52543;DHT22;38449;52.696;6.186;2022-10-16T02:41:54;13.10;99.90
52543;DHT22;38449;52.696;6.186;2022-10-16T02:44:19;13.00;99.90
52543;DHT22;38449;52.696;6.186;2022-10-16T02:46:45;13.10;99.90
52543;DHT22;38449;52.696;6.186;2022-10-16T02:49:11;13.10;99.90
52543;DHT22;38449;52.696;6.186;2022-10-16T02:51:36;13.10;99.90
52543;DHT22;38449;52.696;6.186;2022-10-16T02:54:03;13.10;99.90
52543;DHT22;38449;52.696;6.186;2022-10-16T02:56:29;13.10;99.90
52543;DHT22;38449;52.696;6.186;2022-10-16T02:58:55;13.10;99.90
52543;DHT22;38449;52.696;6.186;2022-10-16T03:01:21;13.10;99.90
52543;DHT22;38449;52.696;6.186;2022-10-16T03:03:46;13.10;99.90
52543;DHT22;38449;52.696;6.186;2022-10-16T03:06:12;13.10;99.90
52543;DHT22;38449;52.696;6.186;2022-10-16T03:08:37;13.20;99.90
52543;DHT22;38449;52.696;6.186;2022-10-16T03:11:03;13.10;99.90
52543;DHT22;38449;52.696;6.186;2022-10-16T03:13:29;13.10;99.90
52543;DHT22;38449;52.696;6.186;2022-10-16T03:15:54;13.10;99.90
52543;DHT22;38449;52.696;6.186;2022-10-16T03:18:20;13.20;99.90
52543;DHT22;38449;52.696;6.186;2022-10-16T03:20:45;13.20;99.90
52543;DHT22;38449;52.696;6.186;2022-10-16T03:23:11;13.20;99.90
52543;DHT22;38449;52.696;6.186;2022-10-16T03:25:37;13.30;99.90
52543;DHT22;38449;52.696;6.186;2022-10-16T03:28:03;13.30;99.90
52543;DHT22;38449;52.696;6.186;2022-10-16T03:30:28;13.30;99.90
52543;DHT22;38449;52.696;6.186;2022-10-16T03:32:54;13.20;99.90
52543;DHT22;38449;52.696;6.186;2022-10-16T03:35:21;13.20;99.90
52543;DHT22;38449;52.696;6.186;2022-10-16T03:37:46;13.20;99.90
52543;DHT22;38449;52.696;6.186;2022-10-16T03:40:12;13.20;99.90
52543;DHT22;38449;52.696;6.186;2022-10-16T03:42:38;13.10;99.90
52543;DHT22;38449;52.696;6.186;2022-10-16T03:45:04;13.10;99.90
52543;DHT22;38449;52.696;6.186;2022-10-16T03:47:30;13.00;99.90
52543;DHT22;38449;52.696;6.186;2022-10-16T03:49:56;13.00;99.90
52543;DHT22;38449;52.696;6.186;2022-10-16T03:52:21;13.00;99.90
52543;DHT22;38449;52.696;6.186;2022-10-16T03:54:47;13.00;99.90
52543;DHT22;38449;52.696;6.186;2022-10-16T03:57:12;13.00;99.90
52543;DHT22;38449;52.696;6.186;2022-10-16T03:59:38;12.90;99.90
52543;DHT22;38449;52.696;6.186;2022-10-16T04:02:03;12.90;99.90
52543;DHT22;38449;52.696;6.186;2022-10-16T04:04:29;12.90;99.90
52543;DHT22;38449;52.696;6.186;2022-10-16T04:06:54;12.80;99.90
52543;DHT22;38449;52.696;6.186;2022-10-16T04:09:20;12.80;99.90
52543;DHT22;38449;52.696;6.186;2022-10-16T04:11:45;12.80;99.90
52543;DHT22;38449;52.696;6.186;2022-10-16T04:14:11;12.80;99.90
52543;DHT22;38449;52.696;6.186;2022-10-16T04:16:36;12.80;99.90
52543;DHT22;38449;52.696;6.186;2022-10-16T04:19:02;12.80;99.90
52543;DHT22;38449;52.696;6.186;2022-10-16T04:21:28;12.70;99.90
52543;DHT22;38449;52.696;6.186;2022-10-16T04:23:53;12.70;99.90
52543;DHT22;38449;52.696;6.186;2022-10-16T04:26:19;12.70;99.90
52543;DHT22;38449;52.696;6.186;2022-10-16T04:28:44;12.70;99.90
52543;DHT22;38449;52.696;6.186;2022-10-16T04:31:10;12.70;99.90
52543;DHT22;38449;52.696;6.186;2022-10-16T04:33:35;12.80;99.90
52543;DHT22;38449;52.696;6.186;2022-10-16T04:36:02;12.80;99.90
52543;DHT22;38449;52.696;6.186;2022-10-16T04:38:29;12.80;99.90
52543;DHT22;38449;52.696;6.186;2022-10-16T04:40:55;12.80;99.90
52543;DHT22;38449;52.696;6.186;2022-10-16T04:43:21;12.90;99.90
52543;DHT22;38449;52.696;6.186;2022-10-16T04:45:47;12.80;99.90
52543;DHT22;38449;52.696;6.186;2022-10-16T04:48:12;12.90;99.90
52543;DHT22;38449;52.696;6.186;2022-10-16T04:50:38;12.90;99.90
52543;DHT22;38449;52.696;6.186;2022-10-16T04:53:04;12.90;99.90
52543;DHT22;38449;52.696;6.186;2022-10-16T04:55:29;12.90;99.90
52543;DHT22;38449;52.696;6.186;2022-10-16T04:57:55;12.90;99.90
52543;DHT22;38449;52.696;6.186;2022-10-16T05:00:20;12.90;99.90
52543;DHT22;38449;52.696;6.186;2022-10-16T05:02:49;12.90;99.90
52543;DHT22;38449;52.696;6.186;2022-10-16T05:05:15;12.90;99.90
52543;DHT22;38449;52.696;6.186;2022-10-16T05:07:40;12.90;99.90
52543;DHT22;38449;52.696;6.186;2022-10-16T05:10:06;12.80;99.90
52543;DHT22;38449;52.696;6.186;2022-10-16T05:12:33;12.80;99.90
52543;DHT22;38449;52.696;6.186;2022-10-16T05:14:58;12.80;99.90
52543;DHT22;38449;52.696;6.186;2022-10-16T05:17:25;12.80;99.90
52543;DHT22;38449;52.696;6.186;2022-10-16T05:19:50;12.80;99.90
52543;DHT22;38449;52.696;6.186;2022-10-16T05:22:16;12.80;99.90
52543;DHT22;38449;52.696;6.186;2022-10-16T05:24:41;12.80;99.90
52543;DHT22;38449;52.696;6.186;2022-10-16T05:27:07;12.80;99.90
52543;DHT22;38449;52.696;6.186;2022-10-16T05:29:32;12.80;99.90
52543;DHT22;38449;52.696;6.186;2022-10-16T05:31:58;12.80;99.90
52543;DHT22;38449;52.696;6.186;2022-10-16T05:34:24;12.80;99.90
52543;DHT22;38449;52.696;6.186;2022-10-16T05:36:49;12.70;99.90
52543;DHT22;38449;52.696;6.186;2022-10-16T05:39:15;12.80;99.90
52543;DHT22;38449;52.696;6.186;2022-10-16T05:41:42;12.70;99.90
52543;DHT22;38449;52.696;6.186;2022-10-16T05:44:07;12.60;99.90
52543;DHT22;38449;52.696;6.186;2022-10-16T05:46:33;12.70;99.90
52543;DHT22;38449;52.696;6.186;2022-10-16T05:48:59;12.60;99.90
52543;DHT22;38449;52.696;6.186;2022-10-16T05:51:24;12.70;99.90
52543;DHT22;38449;52.696;6.186;2022-10-16T05:53:51;12.60;99.90
52543;DHT22;38449;52.696;6.186;2022-10-16T05:56:17;12.60;99.90
52543;DHT22;38449;52.696;6.186;2022-10-16T05:58:42;12.60;99.90
52543;DHT22;38449;52.696;6.186;2022-10-16T06:01:15;12.60;99.90
52543;DHT22;38449;52.696;6.186;2022-10-16T06:03:41;12.60;99.90
52543;DHT22;38449;52.696;6.186;2022-10-16T06:06:18;12.60;99.90
52543;DHT22;38449;52.696;6.186;2022-10-16T06:08:46;12.70;99.90
52543;DHT22;38449;52.696;6.186;2022-10-16T06:11:18;12.70;99.90
52543;DHT22;38449;52.696;6.186;2022-10-16T06:13:44;12.70;99.90
52543;DHT22;38449;52.696;6.186;2022-10-16T06:16:12;12.70;99.90
52543;DHT22;38449;52.696;6.186;2022-10-16T06:18:38;12.70;99.90
52543;DHT22;38449;52.696;6.186;2022-10-16T06:21:19;12.80;99.90
52543;DHT22;38449;52.696;6.186;2022-10-16T06:23:45;12.80;99.90
52543;DHT22;38449;52.696;6.186;2022-10-16T06:26:13;12.80;99.90
52543;DHT22;38449;52.696;6.186;2022-10-16T06:28:39;12.90;99.90
52543;DHT22;38449;52.696;6.186;2022-10-16T06:31:06;12.90;99.90
52543;DHT22;38449;52.696;6.186;2022-10-16T06:33:32;12.90;99.90
52543;DHT22;38449;52.696;6.186;2022-10-16T06:36:08;12.90;99.90
52543;DHT22;38449;52.696;6.186;2022-10-16T06:38:35;12.90;99.90
52543;DHT22;38449;52.696;6.186;2022-10-16T06:41:01;13.00;99.90
52543;DHT22;38449;52.696;6.186;2022-10-16T06:43:29;13.00;99.90
52543;DHT22;38449;52.696;6.186;2022-10-16T06:45:58;13.00;99.90
52543;DHT22;38449;52.696;6.186;2022-10-16T06:48:24;13.00;99.90
52543;DHT22;38449;52.696;6.186;2022-10-16T06:51:01;13.10;99.90
52543;DHT22;38449;52.696;6.186;2022-10-16T06:53:29;13.10;99.90
52543;DHT22;38449;52.696;6.186;2022-10-16T06:55:55;13.10;99.90
52543;DHT22;38449;52.696;6.186;2022-10-16T06:58:21;13.20;99.90
52543;DHT22;38449;52.696;6.186;2022-10-16T07:00:47;13.20;99.90
52543;DHT22;38449;52.696;6.186;2022-10-16T07:03:13;13.30;99.90
52543;DHT22;38449;52.696;6.186;2022-10-16T07:05:42;13.30;99.90
52543;DHT22;38449;52.696;6.186;2022-10-16T07:08:08;13.40;99.90
52543;DHT22;38449;52.696;6.186;2022-10-16T07:10:34;13.40;99.90
52543;DHT22;38449;52.696;6.186;2022-10-16T07:13:00;13.40;99.90
52543;DHT22;38449;52.696;6.186;2022-10-16T07:15:26;13.50;99.90
52543;DHT22;38449;52.696;6.186;2022-10-16T07:17:52;13.50;99.90
52543;DHT22;38449;52.696;6.186;2022-10-16T07:20:18;13.60;99.90
52543;DHT22;38449;52.696;6.186;2022-10-16T07:22:43;13.60;99.90
52543;DHT22;38449;52.696;6.186;2022-10-16T07:25:09;13.60;99.90
52543;DHT22;38449;52.696;6.186;2022-10-16T07:27:36;13.60;99.90
52543;DHT22;38449;52.696;6.186;2022-10-16T07:30:02;13.60;99.90
52543;DHT22;38449;52.696;6.186;2022-10-16T07:32:28;13.60;99.90
52543;DHT22;38449;52.696;6.186;2022-10-16T07:34:54;13.70;99.90
52543;DHT22;38449;52.696;6.186;2022-10-16T07:37:21;13.70;99.90
52543;DHT22;38449;52.696;6.186;2022-10-16T07:39:46;13.70;99.90
52543;DHT22;38449;52.696;6.186;2022-10-16T07:42:12;13.70;99.90
52543;DHT22;38449;52.696;6.186;2022-10-16T07:44:38;13.70;99.90
52543;DHT22;38449;52.696;6.186;2022-10-16T07:47:03;13.80;99.90
52543;DHT22;38449;52.696;6.186;2022-10-16T07:49:29;13.80;99.90
52543;DHT22;38449;52.696;6.186;2022-10-16T07:51:54;13.80;99.90
52543;DHT22;38449;52.696;6.186;2022-10-16T07:54:20;13.80;99.90
52543;DHT22;38449;52.696;6.186;2022-10-16T07:56:45;14.00;99.90
52543;DHT22;38449;52.696;6.186;2022-10-16T07:59:11;14.00;99.90
52543;DHT22;38449;52.696;6.186;2022-10-16T08:01:37;14.00;99.90
52543;DHT22;38449;52.696;6.186;2022-10-16T08:04:02;14.00;99.90
52543;DHT22;38449;52.696;6.186;2022-10-16T08:06:28;14.10;99.90
52543;DHT22;38449;52.696;6.186;2022-10-16T08:08:54;14.10;99.90
52543;DHT22;38449;52.696;6.186;2022-10-16T08:11:20;14.10;99.90
52543;DHT22;38449;52.696;6.186;2022-10-16T08:13:45;14.30;99.90
52543;DHT22;38449;52.696;6.186;2022-10-16T08:16:11;14.30;99.90
52543;DHT22;38449;52.696;6.186;2022-10-16T08:18:38;14.40;99.90
52543;DHT22;38449;52.696;6.186;2022-10-16T08:21:05;14.40;99.90
52543;DHT22;38449;52.696;6.186;2022-10-16T08:23:32;14.40;99.90
52543;DHT22;38449;52.696;6.186;2022-10-16T08:26:04;14.40;99.90
52543;DHT22;38449;52.696;6.186;2022-10-16T08:28:30;14.40;99.90
52543;DHT22;38449;52.696;6.186;2022-10-16T08:30:55;14.50;99.90
52543;DHT22;38449;52.696;6.186;2022-10-16T08:33:22;14.50;99.90
52543;DHT22;38449;52.696;6.186;2022-10-16T08:35:52;14.50;99.90
52543;DHT22;38449;52.696;6.186;2022-10-16T08:38:19;14.60;99.90
52543;DHT22;38449;52.696;6.186;2022-10-16T08:40:44;14.60;99.90
52543;DHT22;38449;52.696;6.186;2022-10-16T08:46:06;14.80;99.90
52543;DHT22;38449;52.696;6.186;2022-10-16T08:48:48;14.90;99.90
52543;DHT22;38449;52.696;6.186;2022-10-16T08:51:32;15.00;99.90
52543;DHT22;38449;52.696;6.186;2022-10-16T08:56:30;15.20;99.90
52543;DHT22;38449;52.696;6.186;2022-10-16T08:58:58;15.30;99.90
52543;DHT22;38449;52.696;6.186;2022-10-16T09:01:32;15.30;99.90
52543;DHT22;38449;52.696;6.186;2022-10-16T09:07:41;15.40;99.90
52543;DHT22;38449;52.696;6.186;2022-10-16T09:13:18;15.70;99.90
52543;DHT22;38449;52.696;6.186;2022-10-16T09:16:10;15.70;99.90
52543;DHT22;38449;52.696;6.186;2022-10-16T09:18:56;15.70;99.90
52543;DHT22;38449;52.696;6.186;2022-10-16T09:21:28;15.90;99.90
52543;DHT22;38449;52.696;6.186;2022-10-16T09:23:59;15.90;99.90
52543;DHT22;38449;52.696;6.186;2022-10-16T09:26:30;16.00;99.90
52543;DHT22;38449;52.696;6.186;2022-10-16T09:28:55;16.00;99.90
52543;DHT22;38449;52.696;6.186;2022-10-16T09:31:22;16.00;99.90
52543;DHT22;38449;52.696;6.186;2022-10-16T09:33:58;16.10;99.90
52543;DHT22;38449;52.696;6.186;2022-10-16T09:36:26;16.20;99.90
52543;DHT22;38449;52.696;6.186;2022-10-16T09:39:03;16.20;99.90
52543;DHT22;38449;52.696;6.186;2022-10-16T09:41:30;16.20;99.90
52543;DHT22;38449;52.696;6.186;2022-10-16T09:43:57;16.20;99.90
52543;DHT22;38449;52.696;6.186;2022-10-16T09:48:59;16.30;99.90
52543;DHT22;38449;52.696;6.186;2022-10-16T09:51:30;16.30;99.90
52543;DHT22;38449;52.696;6.186;2022-10-16T09:54:01;16.30;99.90
52543;DHT22;38449;52.696;6.186;2022-10-16T09:56:28;16.30;99.90
52543;DHT22;38449;52.696;6.186;2022-10-16T09:58:57;16.30;99.90
52543;DHT22;38449;52.696;6.186;2022-10-16T10:01:29;16.50;99.90
52543;DHT22;38449;52.696;6.186;2022-10-16T10:03:57;16.60;99.90
52543;DHT22;38449;52.696;6.186;2022-10-16T10:06:37;16.70;99.90
52543;DHT22;38449;52.696;6.186;2022-10-16T10:09:18;16.80;99.90
52543;DHT22;38449;52.696;6.186;2022-10-16T10:12:01;16.90;99.90
52543;DHT22;38449;52.696;6.186;2022-10-16T10:14:37;16.80;99.90
52543;DHT22;38449;52.696;6.186;2022-10-16T10:19:55;16.60;99.90
52543;DHT22;38449;52.696;6.186;2022-10-16T10:25:01;16.70;99.90
52543;DHT22;38449;52.696;6.186;2022-10-16T10:30:35;16.90;99.90
52543;DHT22;38449;52.696;6.186;2022-10-16T10:46:05;17.00;99.90
52543;DHT22;38449;52.696;6.186;2022-10-16T10:51:51;17.20;99.90
52543;DHT22;38449;52.696;6.186;2022-10-16T10:54:56;17.30;99.90
52543;DHT22;38449;52.696;6.186;2022-10-16T11:02:54;17.30;99.90
52543;DHT22;38449;52.696;6.186;2022-10-16T11:05:44;17.40;99.90
52543;DHT22;38449;52.696;6.186;2022-10-16T11:08:36;17.30;99.90
52543;DHT22;38449;52.696;6.186;2022-10-16T11:11:24;17.20;99.90
52543;DHT22;38449;52.696;6.186;2022-10-16T11:19:48;16.90;99.90
52543;DHT22;38449;52.696;6.186;2022-10-16T11:22:32;16.80;99.90
52543;DHT22;38449;52.696;6.186;2022-10-16T11:25:16;16.80;99.90
52543;DHT22;38449;52.696;6.186;2022-10-16T11:28:14;16.70;99.90
52543;DHT22;38449;52.696;6.186;2022-10-16T11:30:50;16.70;99.90
52543;DHT22;38449;52.696;6.186;2022-10-16T11:38:44;16.90;99.90
52543;DHT22;38449;52.696;6.186;2022-10-16T11:41:22;17.10;99.90
52543;DHT22;38449;52.696;6.186;2022-10-16T11:46:29;17.20;99.90
52543;DHT22;38449;52.696;6.186;2022-10-16T11:49:15;17.30;99.90
52543;DHT22;38449;52.696;6.186;2022-10-16T11:51:48;17.30;99.90
52543;DHT22;38449;52.696;6.186;2022-10-16T11:55:12;17.30;99.90
52543;DHT22;38449;52.696;6.186;2022-10-16T11:57:32;17.30;99.90
52543;DHT22;38449;52.696;6.186;2022-10-16T12:00:02;17.20;99.90
52543;DHT22;38449;52.696;6.186;2022-10-16T12:02:59;17.10;99.90
52543;DHT22;38449;52.696;6.186;2022-10-16T12:08:20;17.10;99.90
52543;DHT22;38449;52.696;6.186;2022-10-16T12:10:47;17.20;99.90
52543;DHT22;38449;52.696;6.186;2022-10-16T12:18:41;17.20;99.90
52543;DHT22;38449;52.696;6.186;2022-10-16T12:21:07;17.20;99.90
52543;DHT22;38449;52.696;6.186;2022-10-16T12:23:37;17.00;99.90
52543;DHT22;38449;52.696;6.186;2022-10-16T12:26:04;16.90;99.90
52543;DHT22;38449;52.696;6.186;2022-10-16T12:28:31;16.90;99.90
52543;DHT22;38449;52.696;6.186;2022-10-16T12:31:02;16.90;99.90
52543;DHT22;38449;52.696;6.186;2022-10-16T12:33:33;16.90;99.90
52543;DHT22;38449;52.696;6.186;2022-10-16T12:36:03;17.00;99.90
52543;DHT22;38449;52.696;6.186;2022-10-16T12:38:48;16.90;99.90
52543;DHT22;38449;52.696;6.186;2022-10-16T12:41:25;17.00;99.90
52543;DHT22;38449;52.696;6.186;2022-10-16T12:43:52;16.90;99.90
52543;DHT22;38449;52.696;6.186;2022-10-16T12:48:44;17.00;99.90
52543;DHT22;38449;52.696;6.186;2022-10-16T12:51:21;17.00;99.90
52543;DHT22;38449;52.696;6.186;2022-10-16T12:54:10;17.00;99.90
52543;DHT22;38449;52.696;6.186;2022-10-16T12:59:24;17.00;99.90
52543;DHT22;38449;52.696;6.186;2022-10-16T13:10:23;17.30;99.90
52543;DHT22;38449;52.696;6.186;2022-10-16T13:15:57;17.40;99.90
52543;DHT22;38449;52.696;6.186;2022-10-16T13:21:40;17.40;99.90
52543;DHT22;38449;52.696;6.186;2022-10-16T13:29:30;17.50;99.90
52543;DHT22;38449;52.696;6.186;2022-10-16T13:31:56;17.60;99.90
52543;DHT22;38449;52.696;6.186;2022-10-16T13:34:22;17.60;99.90
52543;DHT22;38449;52.696;6.186;2022-10-16T13:36:50;17.60;99.90
52543;DHT22;38449;52.696;6.186;2022-10-16T13:39:20;17.60;99.90
52543;DHT22;38449;52.696;6.186;2022-10-16T13:42:01;17.60;99.90
52543;DHT22;38449;52.696;6.186;2022-10-16T13:44:33;17.50;99.90
52543;DHT22;38449;52.696;6.186;2022-10-16T13:47:01;17.50;99.90
52543;DHT22;38449;52.696;6.186;2022-10-16T13:49:27;17.40;99.90
52543;DHT22;38449;52.696;6.186;2022-10-16T13:52:00;17.40;99.90
52543;DHT22;38449;52.696;6.186;2022-10-16T13:54:27;17.50;99.90
52543;DHT22;38449;52.696;6.186;2022-10-16T13:56:54;17.50;99.90
52543;DHT22;38449;52.696;6.186;2022-10-16T13:59:34;17.50;99.90
52543;DHT22;38449;52.696;6.186;2022-10-16T14:02:08;17.50;99.90
52543;DHT22;38449;52.696;6.186;2022-10-16T14:04:39;17.50;99.90
52543;DHT22;38449;52.696;6.186;2022-10-16T14:07:05;17.50;99.90
52543;DHT22;38449;52.696;6.186;2022-10-16T14:09:31;17.50;99.90
52543;DHT22;38449;52.696;6.186;2022-10-16T14:12:00;17.40;99.90
52543;DHT22;38449;52.696;6.186;2022-10-16T14:14:40;17.40;99.90
52543;DHT22;38449;52.696;6.186;2022-10-16T14:17:18;17.50;99.90
52543;DHT22;38449;52.696;6.186;2022-10-16T14:19:49;17.60;99.90
52543;DHT22;38449;52.696;6.186;2022-10-16T14:24:59;17.60;99.90
52543;DHT22;38449;52.696;6.186;2022-10-16T14:27:35;17.50;99.90
52543;DHT22;38449;52.696;6.186;2022-10-16T14:32:33;17.50;99.90
52543;DHT22;38449;52.696;6.186;2022-10-16T14:34:59;17.50;99.90
52543;DHT22;38449;52.696;6.186;2022-10-16T14:37:27;17.40;99.90
52543;DHT22;38449;52.696;6.186;2022-10-16T14:39:53;17.40;99.90
52543;DHT22;38449;52.696;6.186;2022-10-16T14:42:21;17.40;99.90
52543;DHT22;38449;52.696;6.186;2022-10-16T14:44:50;17.40;99.90
52543;DHT22;38449;52.696;6.186;2022-10-16T14:47:24;17.40;99.90
52543;DHT22;38449;52.696;6.186;2022-10-16T14:49:52;17.40;99.90
52543;DHT22;38449;52.696;6.186;2022-10-16T14:52:20;17.30;99.90
52543;DHT22;38449;52.696;6.186;2022-10-16T14:54:49;17.30;99.90
52543;DHT22;38449;52.696;6.186;2022-10-16T14:57:20;17.30;99.90
52543;DHT22;38449;52.696;6.186;2022-10-16T14:59:47;17.30;99.90
52543;DHT22;38449;52.696;6.186;2022-10-16T15:02:18;17.30;99.90
52543;DHT22;38449;52.696;6.186;2022-10-16T15:04:45;17.20;99.90
52543;DHT22;38449;52.696;6.186;2022-10-16T15:07:11;17.20;99.90
52543;DHT22;38449;52.696;6.186;2022-10-16T15:09:37;17.30;99.90
52543;DHT22;38449;52.696;6.186;2022-10-16T15:12:02;17.20;99.90
52543;DHT22;38449;52.696;6.186;2022-10-16T15:14:28;17.20;99.90
52543;DHT22;38449;52.696;6.186;2022-10-16T15:16:54;17.20;99.90
52543;DHT22;38449;52.696;6.186;2022-10-16T15:19:19;17.20;99.90
52543;DHT22;38449;52.696;6.186;2022-10-16T15:21:45;17.20;99.90
52543;DHT22;38449;52.696;6.186;2022-10-16T15:24:12;17.10;99.90
52543;DHT22;38449;52.696;6.186;2022-10-16T15:26:38;17.10;99.90
52543;DHT22;38449;52.696;6.186;2022-10-16T15:29:04;17.10;99.90
52543;DHT22;38449;52.696;6.186;2022-10-16T15:31:30;17.00;99.90
52543;DHT22;38449;52.696;6.186;2022-10-16T15:33:56;17.00;99.90
52543;DHT22;38449;52.696;6.186;2022-10-16T15:36:33;17.00;99.90
52543;DHT22;38449;52.696;6.186;2022-10-16T15:39:05;17.00;99.90
52543;DHT22;38449;52.696;6.186;2022-10-16T15:41:36;17.00;99.90
52543;DHT22;38449;52.696;6.186;2022-10-16T15:44:01;16.90;99.90
52543;DHT22;38449;52.696;6.186;2022-10-16T15:46:27;16.90;99.90
52543;DHT22;38449;52.696;6.186;2022-10-16T15:48:57;16.90;99.90
52543;DHT22;38449;52.696;6.186;2022-10-16T15:51:23;16.80;99.90
52543;DHT22;38449;52.696;6.186;2022-10-16T15:53:49;16.80;99.90
52543;DHT22;38449;52.696;6.186;2022-10-16T15:56:16;16.80;99.90
52543;DHT22;38449;52.696;6.186;2022-10-16T15:58:43;16.80;99.90
52543;DHT22;38449;52.696;6.186;2022-10-16T16:01:09;16.70;99.90
52543;DHT22;38449;52.696;6.186;2022-10-16T16:03:37;16.70;99.90
52543;DHT22;38449;52.696;6.186;2022-10-16T16:06:09;16.70;99.90
52543;DHT22;38449;52.696;6.186;2022-10-16T16:08:36;16.70;99.90
52543;DHT22;38449;52.696;6.186;2022-10-16T16:13:29;16.60;99.90
52543;DHT22;38449;52.696;6.186;2022-10-16T16:15:55;16.70;99.90
52543;DHT22;38449;52.696;6.186;2022-10-16T16:18:20;16.60;99.90
52543;DHT22;38449;52.696;6.186;2022-10-16T16:20:46;16.60;99.90
52543;DHT22;38449;52.696;6.186;2022-10-16T16:23:12;16.50;99.90
52543;DHT22;38449;52.696;6.186;2022-10-16T16:25:37;16.50;99.90
52543;DHT22;38449;52.696;6.186;2022-10-16T16:28:03;16.50;99.90
52543;DHT22;38449;52.696;6.186;2022-10-16T16:30:28;16.40;99.90
52543;DHT22;38449;52.696;6.186;2022-10-16T16:32:54;16.30;99.90
52543;DHT22;38449;52.696;6.186;2022-10-16T16:35:19;16.30;99.90
52543;DHT22;38449;52.696;6.186;2022-10-16T16:37:47;16.20;99.90
52543;DHT22;38449;52.696;6.186;2022-10-16T16:40:13;16.20;99.90
52543;DHT22;38449;52.696;6.186;2022-10-16T16:42:38;16.10;99.90
52543;DHT22;38449;52.696;6.186;2022-10-16T16:45:05;16.10;99.90
52543;DHT22;38449;52.696;6.186;2022-10-16T16:47:30;16.00;99.90
52543;DHT22;38449;52.696;6.186;2022-10-16T16:49:56;16.00;99.90
52543;DHT22;38449;52.696;6.186;2022-10-16T16:52:22;15.90;99.90
52543;DHT22;38449;52.696;6.186;2022-10-16T16:54:48;15.80;99.90
52543;DHT22;38449;52.696;6.186;2022-10-16T16:57:18;15.70;99.90
52543;DHT22;38449;52.696;6.186;2022-10-16T16:59:44;15.70;99.90
52543;DHT22;38449;52.696;6.186;2022-10-16T17:02:10;15.60;99.90
52543;DHT22;38449;52.696;6.186;2022-10-16T17:04:35;15.60;99.90
52543;DHT22;38449;52.696;6.186;2022-10-16T17:07:01;15.50;99.90
52543;DHT22;38449;52.696;6.186;2022-10-16T17:09:26;15.50;99.90
52543;DHT22;38449;52.696;6.186;2022-10-16T17:11:52;15.50;99.90
52543;DHT22;38449;52.696;6.186;2022-10-16T17:14:18;15.40;99.90
52543;DHT22;38449;52.696;6.186;2022-10-16T17:16:43;15.30;99.90
52543;DHT22;38449;52.696;6.186;2022-10-16T17:19:13;15.30;99.90
52543;DHT22;38449;52.696;6.186;2022-10-16T17:21:39;15.20;99.90
52543;DHT22;38449;52.696;6.186;2022-10-16T17:24:05;15.20;99.90
52543;DHT22;38449;52.696;6.186;2022-10-16T17:26:32;15.10;99.90
52543;DHT22;38449;52.696;6.186;2022-10-16T17:29:00;15.10;99.90
52543;DHT22;38449;52.696;6.186;2022-10-16T17:31:32;15.00;99.90
52543;DHT22;38449;52.696;6.186;2022-10-16T17:34:00;15.10;99.90
52543;DHT22;38449;52.696;6.186;2022-10-16T17:36:26;15.00;99.90
52543;DHT22;38449;52.696;6.186;2022-10-16T17:38:54;14.90;99.90
52543;DHT22;38449;52.696;6.186;2022-10-16T17:41:22;14.90;99.90
52543;DHT22;38449;52.696;6.186;2022-10-16T17:43:49;14.90;99.90